Time;durP1;ratioP1;P1;durP2;ratioP2;P2;SDS_P1;SDS_P2;PMS_P1;PMS_P2;Temp;Humidity;BMP_temperature;BMP_pressure;BME280_temperature;BME280_humidity;BME280_pressure;Samples;Min_cycle;Max_cycle;Signal;HPM_P1;HPM_P2
2022/05/15 00:02:40;;;;;;;9.38;4.30;;;7.90;99.90;;;;;;5094608;28;20047;-59
2022/05/15 00:05:06;;;;;;;17.23;4.68;;;7.10;99.90;;;;;;5096740;28;20028;-59
2022/05/15 00:07:32;;;;;;;13.18;4.55;;;7.00;99.90;;;;;;5095893;27;20131;-60
2022/05/15 00:10:00;;;;;;;16.98;5.50;;;6.90;99.90;;;;;;5095564;28;20039;-60
2022/05/15 00:12:25;;;;;;;14.02;5.30;;;7.20;99.90;;;;;;5096055;28;20456;-59
2022/05/15 00:14:51;;;;;;;9.05;4.13;;;6.90;99.90;;;;;;5095298;28;20142;-59
2022/05/15 00:17:17;;;;;;;11.57;4.72;;;7.50;99.90;;;;;;5096071;28;20509;-58
2022/05/15 00:19:43;;;;;;;12.70;4.68;;;6.90;99.90;;;;;;5095653;28;20044;-58
2022/05/15 00:22:09;;;;;;;19.27;6.38;;;7.00;99.90;;;;;;5097105;27;20044;-59
2022/05/15 00:24:37;;;;;;;12.70;5.57;;;6.80;99.90;;;;;;5094591;28;20082;-58
2022/05/15 00:27:04;;;;;;;15.98;7.00;;;8.00;99.90;;;;;;5095863;28;20043;-58
2022/05/15 00:29:30;;;;;;;22.65;8.18;;;8.60;99.90;;;;;;5094236;28;20043;-57
2022/05/15 00:31:58;;;;;;;18.88;7.40;;;6.90;99.90;;;;;;5096307;28;20088;-56
2022/05/15 00:34:24;;;;;;;19.58;6.75;;;6.90;99.90;;;;;;5094256;28;20496;-56
2022/05/15 00:36:50;;;;;;;13.38;6.35;;;6.90;99.90;;;;;;5094587;28;20055;-56
2022/05/15 00:39:17;;;;;;;18.50;8.55;;;6.80;99.90;;;;;;5092876;28;20215;-52
2022/05/15 00:41:43;;;;;;;14.25;6.38;;;6.70;99.90;;;;;;5094160;28;20035;-56
2022/05/15 00:44:10;;;;;;;21.48;8.30;;;6.20;99.90;;;;;;5093855;28;20027;-51
2022/05/15 00:46:41;;;;;;;16.65;6.40;;;6.80;99.90;;;;;;5094399;28;20071;-55
2022/05/15 00:49:10;;;;;;;13.43;6.45;;;7.00;99.90;;;;;;5094715;28;20050;-53
2022/05/15 00:51:39;;;;;;;17.38;6.57;;;6.70;99.90;;;;;;5091423;28;20040;-53
2022/05/15 00:54:06;;;;;;;21.23;7.70;;;6.70;99.90;;;;;;5090997;28;20551;-57
2022/05/15 00:56:36;;;;;;;23.23;8.35;;;6.90;99.90;;;;;;5096224;28;20431;-56
2022/05/15 00:59:09;;;;;;;22.65;7.75;;;6.70;99.90;;;;;;5095276;28;20132;-57
2022/05/15 01:01:35;;;;;;;22.40;8.25;;;6.70;99.90;;;;;;5095177;28;20039;-55
2022/05/15 01:04:01;;;;;;;14.48;6.50;;;8.80;99.90;;;;;;5095515;28;20038;-54
2022/05/15 01:06:30;;;;;;;15.82;6.80;;;6.70;99.90;;;;;;5095126;28;20115;-56
2022/05/15 01:08:56;;;;;;;16.15;6.88;;;6.80;99.90;;;;;;5092732;28;20042;-56
2022/05/15 01:11:24;;;;;;;17.38;6.70;;;6.80;99.90;;;;;;5094167;28;20043;-56
2022/05/15 01:13:52;;;;;;;15.63;5.82;;;6.80;99.90;;;;;;5095618;28;20063;-54
2022/05/15 01:16:27;;;;;;;23.08;6.55;;;6.70;99.90;;;;;;5096303;28;20168;-54
2022/05/15 01:18:57;;;;;;;21.70;7.10;;;6.60;99.90;;;;;;5094273;28;20036;-53
2022/05/15 01:21:25;;;;;;;22.77;7.53;;;6.70;99.90;;;;;;5095001;28;20044;-53
2022/05/15 01:23:52;;;;;;;19.60;7.13;;;6.80;99.90;;;;;;5094798;28;20039;-54
2022/05/15 01:26:19;;;;;;;14.65;5.75;;;6.80;99.90;;;;;;5095827;28;20108;-51
2022/05/15 01:28:45;;;;;;;46.67;8.27;;;6.50;99.90;;;;;;5093809;28;20051;-54
2022/05/15 01:31:13;;;;;;;22.70;7.13;;;6.60;99.90;;;;;;5094403;28;20385;-54
2022/05/15 01:33:39;;;;;;;14.70;6.13;;;6.60;99.90;;;;;;5094171;28;20039;-52
2022/05/15 01:36:06;;;;;;;13.00;4.70;;;6.60;99.90;;;;;;5094934;28;20039;-50
2022/05/15 01:38:32;;;;;;;7.13;3.88;;;6.80;99.90;;;;;;5093934;27;20036;-55
2022/05/15 01:40:58;;;;;;;15.57;5.93;;;6.60;99.90;;;;;;5092968;28;20032;-53
2022/05/15 01:43:23;;;;;;;19.30;6.38;;;6.60;99.90;;;;;;5093280;28;20595;-55
2022/05/15 01:45:51;;;;;;;17.50;5.57;;;6.50;99.90;;;;;;5094248;28;20524;-56
2022/05/15 01:48:17;;;;;;;14.55;4.95;;;6.40;99.90;;;;;;5093611;28;20059;-54
2022/05/15 01:50:43;;;;;;;16.40;6.13;;;6.40;99.90;;;;;;5092707;28;20743;-55
2022/05/15 01:53:10;;;;;;;15.15;5.63;;;6.50;99.90;;;;;;5092381;28;20136;-55
2022/05/15 01:55:36;;;;;;;11.75;4.90;;;6.30;99.90;;;;;;5093315;28;20039;-57
2022/05/15 01:58:01;;;;;;;14.98;5.25;;;6.30;99.90;;;;;;5093335;28;21175;-55
2022/05/15 02:00:28;;;;;;;14.38;5.07;;;6.30;99.90;;;;;;5093090;28;20048;-55
2022/05/15 02:02:54;;;;;;;8.82;3.20;;;6.20;99.90;;;;;;5093147;28;20039;-57
2022/05/15 02:05:21;;;;;;;6.43;2.60;;;6.40;99.90;;;;;;5093830;28;20036;-56
2022/05/15 02:07:49;;;;;;;9.75;2.70;;;6.10;99.90;;;;;;5090768;28;21083;-55
2022/05/15 02:10:15;;;;;;;8.38;2.90;;;6.10;99.90;;;;;;5093070;28;20126;-56
2022/05/15 02:12:40;;;;;;;14.00;3.58;;;6.20;99.90;;;;;;5092185;28;20074;-54
2022/05/15 02:15:07;;;;;;;10.55;2.85;;;6.10;99.90;;;;;;5093729;28;20131;-53
2022/05/15 02:17:33;;;;;;;10.45;4.40;;;6.10;99.90;;;;;;5093251;28;20058;-52
2022/05/15 02:19:59;;;;;;;14.95;5.22;;;6.20;99.90;;;;;;5092578;28;20035;-53
2022/05/15 02:22:25;;;;;;;9.13;3.10;;;6.10;99.90;;;;;;5093032;28;20078;-54
2022/05/15 02:24:50;;;;;;;6.70;2.60;;;6.10;99.90;;;;;;5092666;28;20519;-52
2022/05/15 02:27:16;;;;;;;7.82;3.50;;;6.00;99.90;;;;;;5094137;28;20047;-51
2022/05/15 02:29:42;;;;;;;10.93;3.80;;;5.90;99.90;;;;;;5093592;28;20479;-49
2022/05/15 02:32:08;;;;;;;10.20;3.60;;;5.90;99.90;;;;;;5092900;28;20798;-51
2022/05/15 02:34:35;;;;;;;7.28;2.60;;;;;;;;;;5093872;28;20043;-54
2022/05/15 02:37:01;;;;;;;9.85;3.47;;;;;;;;;;5092949;28;20675;-51
2022/05/15 02:39:29;;;;;;;5.20;2.65;;;6.00;99.90;;;;;;5093481;28;20031;-51
2022/05/15 02:41:54;;;;;;;7.03;2.75;;;5.90;99.90;;;;;;5093324;28;20049;-53
2022/05/15 02:44:20;;;;;;;7.88;2.90;;;;;;;;;;5091866;28;20031;-55
2022/05/15 02:46:46;;;;;;;6.28;2.80;;;5.90;99.90;;;;;;5092797;28;20039;-54
2022/05/15 02:51:59;;;;;;;6.68;2.83;;;5.80;99.90;;;;;;5093127;28;20073;-55
2022/05/15 02:54:24;;;;;;;6.38;3.40;;;5.80;99.90;;;;;;5092703;28;21039;-57
2022/05/15 02:56:50;;;;;;;6.20;3.17;;;5.70;99.90;;;;;;5093146;28;20050;-59
2022/05/15 02:59:17;;;;;;;7.07;3.50;;;5.70;99.90;;;;;;5092938;28;20058;-59
2022/05/15 03:01:43;;;;;;;6.78;3.75;;;5.80;99.90;;;;;;5093381;28;20078;-59
2022/05/15 03:04:09;;;;;;;6.70;3.95;;;;;;;;;;5091709;28;20076;-58
2022/05/15 03:06:38;;;;;;;10.65;3.90;;;5.80;99.90;;;;;;5091901;28;20039;-58
2022/05/15 03:09:04;;;;;;;7.72;3.13;;;5.60;99.90;;;;;;5092353;28;20039;-59
2022/05/15 03:11:31;;;;;;;6.95;3.25;;;;;;;;;;5092821;28;20050;-59
2022/05/15 03:13:56;;;;;;;8.43;3.85;;;5.60;99.90;;;;;;5092529;28;20046;-59
2022/05/15 03:16:22;;;;;;;10.45;4.00;;;;;;;;;;5093324;28;20039;-58
2022/05/15 03:18:50;;;;;;;10.30;4.05;;;5.70;99.90;;;;;;5097216;28;20040;-58
2022/05/15 03:21:30;;;;;;;11.75;4.57;;;5.60;99.90;;;;;;5097026;28;20043;-58
2022/05/15 03:24:01;;;;;;;5.38;2.80;;;5.40;99.90;;;;;;5096717;28;20042;-58
2022/05/15 03:26:29;;;;;;;9.23;2.42;;;5.70;99.90;;;;;;5096848;28;20115;-58
2022/05/15 03:28:54;;;;;;;7.57;3.17;;;5.60;99.90;;;;;;5096846;28;20047;-58
2022/05/15 03:31:20;;;;;;;5.82;2.78;;;5.50;99.90;;;;;;5094344;28;20054;-58
2022/05/15 03:33:48;;;;;;;11.35;2.90;;;5.40;99.90;;;;;;5096670;28;20043;-58
2022/05/15 03:36:15;;;;;;;11.68;3.42;;;5.50;99.90;;;;;;5096296;28;20067;-59
2022/05/15 03:38:43;;;;;;;15.75;4.00;;;5.40;99.90;;;;;;5094785;28;20172;-58
2022/05/15 03:41:10;;;;;;;12.43;3.72;;;5.40;99.90;;;;;;5095760;28;20071;-58
2022/05/15 03:43:36;;;;;;;16.35;5.43;;;5.40;99.90;;;;;;5094892;28;20063;-59
2022/05/15 03:46:06;;;;;;;10.63;3.92;;;5.30;99.90;;;;;;5095458;28;20161;-59
2022/05/15 03:48:35;;;;;;;9.05;4.82;;;5.40;99.90;;;;;;5096044;28;20044;-58
2022/05/15 03:51:00;;;;;;;14.80;5.32;;;5.40;99.90;;;;;;5095220;28;20116;-59
2022/05/15 03:53:27;;;;;;;15.70;4.63;;;5.40;99.90;;;;;;5094767;28;20806;-59
2022/05/15 03:55:56;;;;;;;14.52;5.55;;;5.30;99.90;;;;;;5093268;28;20075;-58
2022/05/15 03:58:27;;;;;;;15.30;7.25;;;5.30;99.90;;;;;;5097388;28;20677;-59
2022/05/15 04:00:53;;;;;;;9.45;3.97;;;;;;;;;;5097106;28;20405;-59
2022/05/15 04:03:20;;;;;;;17.20;4.13;;;;;;;;;;5095692;28;20047;-58
2022/05/15 04:05:45;;;;;;;13.32;5.40;;;5.50;99.90;;;;;;5095242;28;20035;-59
2022/05/15 04:08:11;;;;;;;11.40;5.78;;;5.50;99.90;;;;;;5097270;28;20407;-58
2022/05/15 04:10:37;;;;;;;11.57;5.38;;;5.70;99.90;;;;;;5096003;28;20071;-58
2022/05/15 04:13:04;;;;;;;8.73;3.97;;;5.70;99.90;;;;;;5095782;28;20038;-59
2022/05/15 04:15:30;;;;;;;8.85;5.10;;;;;;;;;;5096731;27;20067;-59
2022/05/15 04:17:58;;;;;;;8.73;5.22;;;5.80;99.90;;;;;;5095463;28;20777;-59
2022/05/15 04:20:26;;;;;;;17.42;7.15;;;5.60;99.90;;;;;;5096111;28;20040;-59
2022/05/15 04:22:52;;;;;;;10.35;5.78;;;6.00;99.90;;;;;;5094924;28;20035;-61
2022/05/15 04:25:19;;;;;;;11.20;5.88;;;6.00;99.90;;;;;;5095957;28;20553;-59
2022/05/15 04:27:46;;;;;;;20.02;7.43;;;6.30;99.90;;;;;;5095602;28;20118;-58
2022/05/15 04:30:16;;;;;;;19.80;7.93;;;6.30;99.90;;;;;;5094963;28;20767;-58
2022/05/15 04:32:44;;;;;;;13.30;6.75;;;6.60;99.90;;;;;;5093547;28;20039;-58
2022/05/15 04:35:10;;;;;;;28.08;10.98;;;6.80;99.90;;;;;;5094549;28;20063;-57
2022/05/15 04:37:37;;;;;;;41.08;12.73;;;7.00;99.90;;;;;;5094146;28;20435;-58
2022/05/15 04:40:04;;;;;;;47.45;13.57;;;7.20;99.90;;;;;;5093343;28;20040;-58
2022/05/15 04:42:31;;;;;;;37.67;13.77;;;7.50;99.90;;;;;;5093326;28;20063;-58
2022/05/15 04:44:58;;;;;;;35.13;13.82;;;7.70;99.90;;;;;;5094115;28;20035;-58
2022/05/15 04:47:24;;;;;;;43.17;14.35;;;7.80;99.90;;;;;;5095573;28;20932;-58
2022/05/15 04:49:51;;;;;;;37.55;12.52;;;9.10;99.90;;;;;;5093816;28;20032;-58
2022/05/15 04:52:16;;;;;;;41.15;13.93;;;8.10;99.90;;;;;;5094663;28;20044;-58
2022/05/15 04:54:42;;;;;;;34.78;11.70;;;9.90;99.90;;;;;;5094369;28;20048;-59
2022/05/15 04:57:08;;;;;;;33.95;11.80;;;8.40;99.90;;;;;;5095722;28;20059;-58
2022/05/15 04:59:35;;;;;;;36.47;12.13;;;8.60;99.90;;;;;;5094119;28;20690;-58
2022/05/15 05:02:03;;;;;;;32.90;11.05;;;8.80;99.90;;;;;;5093919;28;20036;-58
2022/05/15 05:04:29;;;;;;;45.13;12.25;;;10.40;99.90;;;;;;5093220;28;20123;-58
2022/05/15 05:06:54;;;;;;;34.85;12.13;;;8.90;99.90;;;;;;5095218;28;20048;-58
2022/05/15 05:09:20;;;;;;;31.90;10.20;;;9.30;99.90;;;;;;5094704;28;20047;-58
2022/05/15 05:11:46;;;;;;;25.58;10.43;;;9.40;99.90;;;;;;5094316;28;20444;-58
2022/05/15 05:14:14;;;;;;;33.85;9.93;;;9.30;99.90;;;;;;5094778;28;20254;-58
2022/05/15 05:16:41;;;;;;;37.13;10.93;;;9.50;99.90;;;;;;5094157;28;20487;-59
2022/05/15 05:19:07;;;;;;;31.23;9.68;;;9.70;99.90;;;;;;5094795;28;20031;-58
2022/05/15 05:21:33;;;;;;;29.67;9.48;;;11.30;99.90;;;;;;5093240;28;20061;-58
2022/05/15 05:23:59;;;;;;;32.60;9.75;;;10.10;99.90;;;;;;5095075;28;20188;-58
2022/05/15 05:26:25;;;;;;;31.60;9.25;;;10.10;99.90;;;;;;5094265;28;20040;-59
2022/05/15 05:28:51;;;;;;;40.63;9.15;;;10.20;99.90;;;;;;5095012;28;20097;-58
2022/05/15 05:31:20;;;;;;;34.13;9.70;;;10.50;99.90;;;;;;5094733;28;20048;-59
2022/05/15 05:33:46;;;;;;;33.80;9.75;;;10.50;99.90;;;;;;5094715;28;20050;-58
2022/05/15 05:36:12;;;;;;;31.17;9.00;;;10.80;99.90;;;;;;5092683;28;20040;-58
2022/05/15 05:38:38;;;;;;;30.08;8.88;;;10.90;99.90;;;;;;5092652;28;20057;-57
2022/05/15 05:41:04;;;;;;;36.42;8.80;;;11.00;99.90;;;;;;5093777;28;20039;-58
2022/05/15 05:43:30;;;;;;;33.00;8.98;;;11.20;99.90;;;;;;5094311;28;20043;-58
2022/05/15 05:45:59;;;;;;;31.73;8.48;;;11.30;99.90;;;;;;5093492;28;20128;-59
2022/05/15 05:48:27;;;;;;;30.90;8.45;;;12.20;99.90;;;;;;5093204;28;20048;-58
2022/05/15 05:50:53;;;;;;;31.13;9.45;;;12.90;99.90;;;;;;5092230;28;20119;-58
2022/05/15 05:53:18;;;;;;;31.73;7.53;;;11.90;99.90;;;;;;5093488;28;20461;-58
2022/05/15 05:55:46;;;;;;;21.98;7.07;;;12.50;99.90;;;;;;5092836;28;20047;-59
2022/05/15 05:58:12;;;;;;;24.73;8.07;;;12.10;99.90;;;;;;5093890;28;20047;-58
2022/05/15 06:00:38;;;;;;;26.05;7.25;;;12.30;99.90;;;;;;5091103;28;20058;-58
2022/05/15 06:05:50;;;;;;;24.85;7.57;;;12.50;99.90;;;;;;5092476;28;20042;-58
2022/05/15 06:08:17;;;;;;;31.05;8.20;;;14.20;99.90;;;;;;5091676;28;20048;-58
2022/05/15 06:10:44;;;;;;;25.65;7.53;;;14.50;99.90;;;;;;5093501;28;20121;-58
2022/05/15 06:13:10;;;;;;;27.27;7.43;;;13.80;99.90;;;;;;5089921;28;20077;-57
2022/05/15 06:15:36;;;;;;;29.13;7.43;;;14.30;99.90;;;;;;5089715;28;20043;-58
2022/05/15 06:18:04;;;;;;;29.85;7.88;;;13.50;99.90;;;;;;5091458;28;21540;-58
2022/05/15 06:20:30;;;;;;;27.20;7.72;;;13.70;99.90;;;;;;5090830;28;20069;-58
2022/05/15 06:22:56;;;;;;;25.25;7.28;;;13.90;99.90;;;;;;5090355;28;20043;-58
2022/05/15 06:25:22;;;;;;;29.40;7.20;;;14.00;99.90;;;;;;5090642;28;20073;-56
2022/05/15 06:27:48;;;;;;;25.95;7.55;;;15.30;99.90;;;;;;5093175;28;20043;-58
2022/05/15 06:30:15;;;;;;;31.42;7.95;;;14.70;99.90;;;;;;5093760;28;20048;-58
2022/05/15 06:32:41;;;;;;;28.90;7.25;;;14.00;99.90;;;;;;5092612;28;20092;-58
2022/05/15 06:35:09;;;;;;;35.08;8.38;;;15.10;99.90;;;;;;5092427;28;20035;-58
2022/05/15 06:37:35;;;;;;;26.67;7.05;;;14.80;99.90;;;;;;5091990;28;20040;-58
2022/05/15 06:40:02;;;;;;;29.65;6.75;;;14.80;99.90;;;;;;5092241;28;20036;-56
2022/05/15 06:42:30;;;;;;;27.85;6.88;;;15.00;99.90;;;;;;5092891;28;20500;-57
2022/05/15 06:44:57;;;;;;;28.58;6.88;;;15.10;99.90;;;;;;5090966;28;20032;-58
2022/05/15 06:47:24;;;;;;;26.17;6.60;;;17.30;99.90;;;;;;5090232;28;20048;-57
2022/05/15 06:49:50;;;;;;;30.17;7.03;;;17.70;99.90;;;;;;5092404;28;21090;-58
2022/05/15 06:52:16;;;;;;;24.92;6.07;;;16.50;99.90;;;;;;5092305;28;20051;-58
2022/05/15 06:54:42;;;;;;;22.65;6.93;;;17.10;99.90;;;;;;5091942;28;20154;-60
2022/05/15 06:59:51;;;;;;;21.73;6.30;;;18.40;99.90;;;;;;5092221;28;20626;-58
2022/05/15 07:02:17;;;;;;;20.30;5.60;;;19.20;99.90;;;;;;5092475;28;20048;-58
2022/05/15 07:04:44;;;;;;;21.75;5.40;;;20.00;99.90;;;;;;5091796;28;20036;-58
2022/05/15 07:07:11;;;;;;;20.15;6.20;;;20.10;99.90;;;;;;5090446;28;20579;-58
2022/05/15 07:09:37;;;;;;;19.73;5.43;;;22.70;99.90;;;;;;5091849;28;20043;-58
2022/05/15 07:12:04;;;;;;;23.67;6.82;;;21.70;99.90;;;;;;5092104;28;20096;-59
2022/05/15 07:14:30;;;;;;;19.77;5.20;;;22.30;99.90;;;;;;5091705;28;20911;-58
2022/05/15 07:16:56;;;;;;;18.55;4.90;;;22.50;99.90;;;;;;5092006;28;20044;-58
2022/05/15 07:19:22;;;;;;;16.70;5.38;;;24.50;99.90;;;;;;5092296;28;20050;-58
2022/05/15 07:21:47;;;;;;;20.13;5.88;;;23.10;99.90;;;;;;5092580;28;20058;-59
2022/05/15 07:24:13;;;;;;;17.45;5.32;;;23.40;99.90;;;;;;5090964;28;20044;-59
2022/05/15 07:26:44;;;;;;;23.23;5.22;;;23.60;99.90;;;;;;5091728;28;20310;-59
2022/05/15 07:29:10;;;;;;;1003.97;658.30;;;23.80;99.90;;;;;;5092622;28;20040;-58
2022/05/15 07:31:35;;;;;;;1040.20;766.55;;;24.00;99.80;;;;;;5092252;28;20042;-58
2022/05/15 07:34:01;;;;;;;598.80;548.42;;;23.80;99.90;;;;;;5092262;28;20415;-59
2022/05/15 07:36:26;;;;;;;841.90;664.33;;;24.20;99.90;;;;;;5089314;28;20078;-59
2022/05/15 07:38:52;;;;;;;811.30;733.40;;;24.80;97.60;;;;;;5091129;28;20120;-58
2022/05/15 07:41:18;;;;;;;1185.78;681.08;;;24.40;98.60;;;;;;5073720;28;20056;-56
2022/05/15 07:43:45;;;;;;;21.33;8.35;;;25.20;98.30;;;;;;5091614;28;20035;-59
2022/05/15 07:46:11;;;;;;;48.15;22.02;;;24.90;95.20;;;;;;5092301;28;20101;-59
2022/05/15 07:48:37;;;;;;;15.32;4.53;;;24.50;95.80;;;;;;5090877;28;20043;-58
2022/05/15 07:51:03;;;;;;;14.93;4.53;;;26.00;96.50;;;;;;5089809;28;20035;-59
2022/05/15 07:53:29;;;;;;;21.02;5.40;;;24.80;95.50;;;;;;5091541;28;20191;-58
2022/05/15 07:55:59;;;;;;;16.38;4.55;;;24.80;94.70;;;;;;5088141;28;20070;-59
2022/05/15 07:58:25;;;;;;;16.48;4.30;;;24.90;95.70;;;;;;5087895;28;20072;-58
2022/05/15 08:00:53;;;;;;;13.02;4.15;;;24.80;95.00;;;;;;5092134;28;20936;-58
2022/05/15 08:03:19;;;;;;;15.52;4.13;;;25.00;93.60;;;;;;5095265;28;20586;-58
2022/05/15 08:08:32;;;;;;;16.15;4.38;;;24.40;93.10;;;;;;5095245;28;20094;-57
2022/05/15 08:10:59;;;;;;;15.50;4.25;;;23.50;95.00;;;;;;5094747;28;20828;-57
2022/05/15 08:13:28;;;;;;;15.73;4.00;;;22.70;97.70;;;;;;5092503;28;20039;-57
2022/05/15 08:15:54;;;;;;;15.32;4.20;;;22.40;97.40;;;;;;5095525;28;20043;-57
2022/05/15 08:23:56;;;;;;;16.15;4.22;;;21.40;99.90;;;;;;5095749;28;20067;-59
2022/05/15 08:26:22;;;;;;;19.05;4.85;;;21.30;99.90;;;;;;5094624;28;20039;-59
2022/05/15 08:28:48;;;;;;;14.30;4.13;;;21.80;99.90;;;;;;5095773;28;20451;-59
2022/05/15 08:31:17;;;;;;;15.13;3.72;;;22.00;99.70;;;;;;5094850;27;20035;-58
2022/05/15 08:33:43;;;;;;;15.20;4.05;;;22.20;99.90;;;;;;5094629;28;20798;-59
2022/05/15 08:36:09;;;;;;;14.35;4.25;;;22.50;99.40;;;;;;5093434;28;20040;-58
2022/05/15 08:38:37;;;;;;;11.63;4.03;;;22.80;98.50;;;;;;5094770;28;20419;-57
2022/05/15 08:41:22;;;;;;;18.13;4.82;;;25.00;99.00;;;;;;5093906;28;20038;-58
2022/05/15 08:44:29;;;;;;;20.20;4.95;;;22.10;98.90;;;;;;5092254;28;20622;-58
2022/05/15 08:47:16;;;;;;;14.32;4.30;;;21.50;97.70;;;;;;5091309;28;20218;-57
2022/05/15 08:49:46;;;;;;;18.33;4.47;;;20.90;99.80;;;;;;5094736;28;20071;-59
2022/05/15 08:52:17;;;;;;;14.80;4.03;;;20.60;99.70;;;;;;5095039;28;20040;-58
2022/05/15 08:54:53;;;;;;;13.27;3.83;;;20.60;99.90;;;;;;5095559;28;20496;-57
2022/05/15 08:57:39;;;;;;;17.60;4.50;;;20.00;99.90;;;;;;5094232;28;20304;-58
2022/05/15 09:00:10;;;;;;;19.63;4.40;;;19.80;99.90;;;;;;5094365;28;20262;-58
2022/05/15 09:02:40;;;;;;;15.88;4.05;;;19.70;99.90;;;;;;5094090;28;20271;-58
2022/05/15 09:05:07;;;;;;;19.20;4.78;;;19.90;99.90;;;;;;5095219;28;20051;-58
2022/05/15 09:08:02;;;;;;;17.35;4.50;;;19.90;99.90;;;;;;5096175;28;20315;-58
2022/05/15 09:10:43;;;;;;;16.10;4.30;;;20.30;99.90;;;;;;5094036;28;20410;-58
2022/05/15 09:13:37;;;;;;;15.85;4.22;;;21.10;99.90;;;;;;5095603;28;20089;-59
2022/05/15 09:16:09;;;;;;;20.90;4.68;;;21.40;99.90;;;;;;5095594;28;20036;-58
2022/05/15 09:18:37;;;;;;;19.70;4.93;;;21.30;99.90;;;;;;5094344;28;20531;-58
2022/05/15 09:21:09;;;;;;;18.50;4.55;;;21.40;99.90;;;;;;5095071;28;20427;-58
2022/05/15 09:23:39;;;;;;;17.30;7.97;;;22.00;99.90;;;;;;5095350;28;20504;-58
2022/05/15 09:26:40;;;;;;;485.63;438.88;;;21.00;99.90;;;;;;5095589;28;20109;-58
2022/05/15 09:29:14;;;;;;;791.07;715.07;;;21.10;99.90;;;;;;5094995;28;20071;-59
2022/05/15 09:31:42;;;;;;;818.13;728.63;;;20.80;99.90;;;;;;5093840;28;20039;-59
2022/05/15 09:34:20;;;;;;;337.98;289.05;;;18.50;99.90;;;;;;5093672;28;20069;-58
2022/05/15 09:36:47;;;;;;;598.28;544.90;;;20.60;99.90;;;;;;5093665;28;20656;-58
2022/05/15 09:39:24;;;;;;;493.30;454.50;;;20.90;99.90;;;;;;5092582;28;20040;-58
2022/05/15 09:45:00;;;;;;;1363.93;975.22;;;20.70;99.90;;;;;;5094238;28;20043;-58
2022/05/15 09:47:31;;;;;;;591.53;539.63;;;21.00;99.90;;;;;;5094790;28;20310;-59
2022/05/15 09:49:57;;;;;;;621.58;564.88;;;20.70;99.90;;;;;;5092105;28;20104;-58
2022/05/15 09:52:42;;;;;;;501.17;464.15;;;20.90;99.90;;;;;;5093792;28;20038;-58
2022/05/15 09:55:11;;;;;;;559.53;511.90;;;21.10;99.90;;;;;;5093042;28;20516;-58
2022/05/15 09:57:37;;;;;;;558.55;511.48;;;21.10;99.90;;;;;;5094175;28;20067;-58
2022/05/15 10:00:08;;;;;;;1091.05;785.10;;;20.80;99.90;;;;;;5094590;28;20062;-58
2022/05/15 10:02:46;;;;;;;1070.37;787.77;;;21.20;99.90;;;;;;5094206;28;20067;-58
2022/05/15 10:05:20;;;;;;;701.17;626.05;;;21.30;99.90;;;;;;5092462;28;20047;-58
2022/05/15 10:08:05;;;;;;;807.45;721.95;;;21.00;99.90;;;;;;5092740;28;20118;-58
2022/05/15 10:10:38;;;;;;;691.42;618.38;;;21.10;99.90;;;;;;5093131;28;20043;-59
2022/05/15 10:13:20;;;;;;;574.03;487.00;;;21.40;99.90;;;;;;5092687;28;20052;-58
2022/05/15 10:15:49;;;;;;;704.75;632.47;;;21.30;99.90;;;;;;5093567;28;20047;-58
2022/05/15 10:18:22;;;;;;;741.58;475.92;;;21.20;99.90;;;;;;5092618;28;20134;-59
2022/05/15 10:20:51;;;;;;;671.55;426.60;;;21.30;99.90;;;;;;5094177;28;20046;-59
2022/05/15 10:23:23;;;;;;;387.40;217.35;;;21.50;99.90;;;;;;5094067;28;20082;-59
2022/05/15 10:25:49;;;;;;;61.15;36.60;;;21.60;99.90;;;;;;5092936;28;21061;-59
2022/05/15 10:28:47;;;;;;;123.93;67.90;;;21.50;99.90;;;;;;5092979;28;20080;-58
2022/05/15 10:31:18;;;;;;;758.67;494.77;;;21.80;99.90;;;;;;5093185;28;20042;-59
2022/05/15 10:33:48;;;;;;;154.82;110.72;;;21.50;99.10;;;;;;5091145;28;20412;-58
2022/05/15 10:36:24;;;;;;;113.28;82.03;;;21.90;99.90;;;;;;5093049;28;20054;-58
2022/05/15 10:39:01;;;;;;;279.52;196.25;;;21.80;99.90;;;;;;5091118;28;20590;-58
2022/05/15 10:41:58;;;;;;;102.43;45.55;;;21.70;99.90;;;;;;5092148;28;20100;-58
2022/05/15 10:44:39;;;;;;;22.00;12.85;;;21.70;99.90;;;;;;5092717;28;20071;-58
2022/05/15 10:47:18;;;;;;;582.33;496.58;;;21.80;99.90;;;;;;5092867;28;20115;-58
2022/05/15 10:50:21;;;;;;;828.85;624.38;;;22.00;98.30;;;;;;5093044;28;20036;-59
2022/05/15 10:52:50;;;;;;;1040.68;565.83;;;21.70;97.50;;;;;;5091923;28;20571;-58
2022/05/15 10:58:42;;;;;;;691.47;529.45;;;21.10;98.50;;;;;;5092392;28;20048;-59
2022/05/15 11:01:23;;;;;;;968.85;727.28;;;21.30;98.70;;;;;;5093408;28;20039;-58
2022/05/15 11:03:55;;;;;;;291.02;205.48;;;21.10;98.50;;;;;;5091383;28;20051;-59
2022/05/15 11:06:39;;;;;;;335.58;202.90;;;21.50;99.40;;;;;;5088976;28;20412;-58
2022/05/15 11:09:24;;;;;;;452.15;255.55;;;21.70;98.30;;;;;;5090683;28;20050;-59
2022/05/15 11:12:22;;;;;;;155.25;118.45;;;21.70;98.00;;;;;;5091077;28;20095;-59
2022/05/15 11:15:12;;;;;;;19.98;8.68;;;21.70;98.40;;;;;;5086824;28;20762;-58
2022/05/15 11:17:49;;;;;;;21.90;6.45;;;22.00;99.90;;;;;;5092035;28;20036;-58
2022/05/15 11:20:22;;;;;;;152.80;94.85;;;21.70;97.90;;;;;;5091138;28;20055;-58
2022/05/15 11:22:53;;;;;;;36.80;19.45;;;21.90;98.40;;;;;;5088512;28;20104;-58
2022/05/15 11:25:35;;;;;;;20.92;11.52;;;22.60;97.50;;;;;;5091621;28;20074;-58
2022/05/15 11:28:22;;;;;;;21.25;10.20;;;22.00;98.90;;;;;;5091513;28;20512;-58
2022/05/15 11:31:03;;;;;;;18.55;4.70;;;22.30;99.90;;;;;;5091541;28;20107;-58
2022/05/15 11:33:43;;;;;;;22.80;6.93;;;22.40;97.60;;;;;;5092439;28;20048;-58
2022/05/15 11:36:12;;;;;;;23.83;12.23;;;22.50;96.80;;;;;;5090970;28;20089;-58
2022/05/15 11:39:11;;;;;;;26.38;9.82;;;22.30;97.60;;;;;;5094728;28;20064;-58
2022/05/15 11:41:37;;;;;;;78.32;58.08;;;22.30;96.60;;;;;;5096382;28;20123;-58
2022/05/15 11:44:18;;;;;;;985.88;711.50;;;22.10;97.30;;;;;;5092534;28;20043;-58
2022/05/15 11:46:47;;;;;;;859.20;365.23;;;21.90;94.90;;;;;;5095620;28;20114;-55
2022/05/15 11:49:27;;;;;;;1039.38;705.78;;;22.00;95.30;;;;;;5095635;28;20629;-57
2022/05/15 11:52:05;;;;;;;1180.15;847.90;;;21.80;94.50;;;;;;5095517;28;20456;-57
2022/05/15 11:54:34;;;;;;;976.08;765.35;;;21.60;95.70;;;;;;5095094;28;20046;-57
2022/05/15 11:57:01;;;;;;;486.17;308.25;;;21.40;96.00;;;;;;5093570;28;20074;-56
2022/05/15 11:59:32;;;;;;;1245.13;801.85;;;21.50;97.20;;;;;;5095987;28;20113;-58
2022/05/15 12:02:28;;;;;;;930.28;827.45;;;21.70;96.40;;;;;;5094291;28;20043;-58
2022/05/15 12:05:01;;;;;;;828.33;642.17;;;21.70;94.50;;;;;;5095364;28;20035;-56
2022/05/15 12:07:50;;;;;;;175.63;125.78;;;21.60;97.30;;;;;;5095627;28;20534;-58
2022/05/15 12:10:33;;;;;;;50.15;33.25;;;21.70;96.80;;;;;;5095168;28;20108;-57
2022/05/15 12:13:28;;;;;;;27.52;11.27;;;21.80;99.90;;;;;;5093757;28;20096;-57
2022/05/15 12:16:15;;;;;;;413.95;279.67;;;22.10;99.30;;;;;;5094043;28;20039;-55
2022/05/15 12:18:43;;;;;;;1094.10;806.40;;;22.00;94.30;;;;;;5095155;28;20106;-55
2022/05/15 12:21:14;;;;;;;1301.53;866.35;;;21.90;93.80;;;;;;5095054;28;20048;-57
2022/05/15 12:24:27;;;;;;;1133.47;873.73;;;22.00;94.70;;;;;;5096204;28;20122;-57
2022/05/15 12:26:44;;;;;;;1121.38;855.85;;;22.50;93.80;;;;;;5095490;28;20878;-57
2022/05/15 12:29:30;;;;;;;145.77;106.70;;;22.20;94.20;;;;;;5094479;28;20047;-56
2022/05/15 12:31:56;;;;;;;1319.93;830.22;;;22.10;95.40;;;;;;5094301;28;20130;-58
2022/05/15 12:34:34;;;;;;;1020.55;811.25;;;22.40;94.20;;;;;;5095480;28;20039;-57
2022/05/15 12:37:06;;;;;;;1280.57;653.65;;;22.10;93.70;;;;;;5094619;28;20450;-57
2022/05/15 12:39:38;;;;;;;646.22;460.30;;;22.10;94.90;;;;;;5093045;28;20050;-58
2022/05/15 12:42:38;;;;;;;312.92;174.88;;;22.10;94.70;;;;;;5093917;28;20036;-57
2022/05/15 12:45:10;;;;;;;883.45;620.80;;;22.00;94.20;;;;;;5091896;28;20411;-57
2022/05/15 12:47:39;;;;;;;564.53;330.70;;;22.20;94.30;;;;;;5095657;28;20146;-55
2022/05/15 12:50:21;;;;;;;801.35;534.30;;;22.10;94.60;;;;;;5110625;27;20123;-57
2022/05/15 12:52:58;;;;;;;632.95;300.02;;;22.20;94.10;;;;;;5094928;28;20282;-57
2022/05/15 12:55:32;;;;;;;434.55;204.45;;;22.30;95.40;;;;;;5094655;28;20057;-57
2022/05/15 12:57:59;;;;;;;869.45;723.90;;;22.40;94.40;;;;;;5094315;28;20055;-57
2022/05/15 13:00:37;;;;;;;768.22;329.23;;;22.30;93.60;;;;;;5095353;28;20043;-57
2022/05/15 13:03:06;;;;;;;206.43;91.10;;;22.50;94.60;;;;;;5094937;28;20104;-57
2022/05/15 13:05:53;;;;;;;298.38;119.20;;;22.40;95.10;;;;;;5094921;28;20035;-57
2022/05/15 13:08:19;;;;;;;1150.90;616.50;;;22.40;93.80;;;;;;5093649;28;20126;-57
2022/05/15 13:11:02;;;;;;;420.92;193.73;;;22.50;94.50;;;;;;5094531;28;20043;-57
2022/05/15 13:13:34;;;;;;;1287.30;540.72;;;22.30;97.20;;;;;;5094509;28;20086;-57
2022/05/15 13:16:00;;;;;;;1121.05;827.28;;;22.50;94.20;;;;;;5094561;28;20090;-58